Time;durP1;ratioP1;P1;durP2;ratioP2;P2;SDS_P1;SDS_P2;PMS_P1;PMS_P2;Temp;Humidity;BMP_temperature;BMP_pressure;BME280_temperature;BME280_humidity;BME280_pressure;Samples;Min_cycle;Max_cycle;Signal;HPM_P1;HPM_P2
2022/01/29 00:01:34;;;;;;;11.20;5.43;;;4.40;82.40;;;;;;5138092;27;20061;-31
2022/01/29 00:03:59;;;;;;;6.75;4.47;;;4.40;82.40;;;;;;5120703;27;20126;-31
2022/01/29 00:06:26;;;;;;;5.90;4.22;;;4.40;82.30;;;;;;5139166;27;20030;-41
2022/01/29 00:08:54;;;;;;;5.55;3.78;;;4.40;82.50;;;;;;5138502;27;20055;-31
2022/01/29 00:11:20;;;;;;;5.13;3.90;;;4.40;82.50;;;;;;5138399;27;20063;-32
2022/01/29 00:13:45;;;;;;;6.50;4.32;;;4.40;82.40;;;;;;5139054;27;20031;-31
2022/01/29 00:16:11;;;;;;;6.45;4.38;;;4.40;82.40;;;;;;5138176;27;20027;-31
2022/01/29 00:18:37;;;;;;;5.85;4.07;;;4.30;82.40;;;;;;5138780;27;20031;-32
2022/01/29 00:21:03;;;;;;;5.65;4.13;;;4.30;82.40;;;;;;5138254;27;20027;-38
2022/01/29 00:23:29;;;;;;;6.03;4.00;;;4.30;82.40;;;;;;5138168;27;20039;-32
2022/01/29 00:25:54;;;;;;;5.38;4.10;;;4.30;82.60;;;;;;5138171;27;20409;-42
2022/01/29 00:28:20;;;;;;;4.80;3.78;;;4.30;82.60;;;;;;5138626;27;20073;-41
2022/01/29 00:30:46;;;;;;;5.13;4.07;;;4.30;82.40;;;;;;5137889;27;20319;-41
2022/01/29 00:33:12;;;;;;;6.45;3.97;;;4.30;82.40;;;;;;5138425;27;20031;-33
2022/01/29 00:35:39;;;;;;;5.10;3.75;;;4.20;82.40;;;;;;5137999;27;20039;-32
2022/01/29 00:38:05;;;;;;;5.93;4.03;;;4.20;82.60;;;;;;5138410;27;20038;-40
2022/01/29 00:40:32;;;;;;;5.10;4.00;;;4.20;82.70;;;;;;5137518;27;20039;-42
2022/01/29 00:42:59;;;;;;;6.00;4.47;;;4.20;82.80;;;;;;5138157;27;20043;-32
2022/01/29 00:45:25;;;;;;;5.88;4.20;;;4.10;82.90;;;;;;5137960;27;20054;-41
2022/01/29 00:47:51;;;;;;;4.78;3.55;;;4.10;83.00;;;;;;5138123;27;20038;-41
2022/01/29 00:50:17;;;;;;;5.93;4.28;;;4.10;83.00;;;;;;5137781;27;20319;-42
2022/01/29 00:52:43;;;;;;;6.60;4.10;;;4.10;83.10;;;;;;5138044;27;20035;-41
2022/01/29 00:55:10;;;;;;;5.80;4.35;;;4.00;83.00;;;;;;5137686;27;20031;-36
2022/01/29 00:57:39;;;;;;;6.40;4.13;;;4.00;83.10;;;;;;5137927;27;20031;-33
2022/01/29 01:00:08;;;;;;;6.78;3.88;;;4.00;83.30;;;;;;5137380;27;20038;-41
2022/01/29 01:02:34;;;;;;;5.78;3.88;;;4.00;83.60;;;;;;5137638;27;20075;-31
2022/01/29 01:04:59;;;;;;;5.45;3.72;;;4.00;83.80;;;;;;5137408;27;20070;-36
2022/01/29 01:07:25;;;;;;;10.20;4.45;;;4.00;83.90;;;;;;5137489;27;20032;-41
2022/01/29 01:09:51;;;;;;;5.25;3.42;;;4.00;84.00;;;;;;5137527;27;20035;-32
2022/01/29 01:12:16;;;;;;;5.15;3.25;;;4.00;83.90;;;;;;5137572;27;20038;-31
2022/01/29 01:14:42;;;;;;;5.28;3.60;;;4.00;83.80;;;;;;5137015;27;20027;-41
2022/01/29 01:17:07;;;;;;;4.38;3.33;;;4.00;84.00;;;;;;5137433;27;20042;-41
2022/01/29 01:19:33;;;;;;;4.95;3.70;;;4.00;83.80;;;;;;5137279;27;20035;-42
2022/01/29 01:21:59;;;;;;;6.15;3.85;;;4.00;83.70;;;;;;5137332;27;20422;-41
2022/01/29 01:24:25;;;;;;;4.65;3.28;;;4.00;83.80;;;;;;5137446;27;20387;-36
2022/01/29 01:26:51;;;;;;;5.32;3.42;;;4.10;83.80;;;;;;5137073;27;20054;-31
2022/01/29 01:29:17;;;;;;;4.65;2.85;;;4.10;83.70;;;;;;5137378;27;20438;-41
2022/01/29 01:31:45;;;;;;;4.32;3.17;;;4.10;83.70;;;;;;5137299;27;20104;-34
2022/01/29 01:34:12;;;;;;;4.68;3.20;;;4.10;83.50;;;;;;5136941;27;20043;-33
2022/01/29 01:36:44;;;;;;;4.40;2.95;;;4.10;83.50;;;;;;5137171;27;20326;-32
2022/01/29 01:39:13;;;;;;;4.25;3.15;;;4.10;83.50;;;;;;5137115;27;20059;-33
2022/01/29 01:41:42;;;;;;;5.45;3.00;;;4.10;83.50;;;;;;5137054;27;20114;-42
2022/01/29 01:44:13;;;;;;;4.10;3.03;;;4.10;83.60;;;;;;5137349;27;20035;-44
2022/01/29 01:46:39;;;;;;;7.03;3.17;;;4.10;83.60;;;;;;5136694;27;20074;-33
2022/01/29 01:49:05;;;;;;;5.03;3.13;;;4.10;83.60;;;;;;5137006;28;20242;-35
2022/01/29 01:51:31;;;;;;;4.13;2.70;;;4.10;83.50;;;;;;5136819;28;20323;-37
2022/01/29 01:53:57;;;;;;;4.38;2.75;;;4.10;83.40;;;;;;5139506;27;20056;-35
2022/01/29 01:56:23;;;;;;;4.25;3.05;;;4.10;83.30;;;;;;5141098;27;20027;-34
2022/01/29 01:58:49;;;;;;;4.45;3.13;;;4.10;83.20;;;;;;5141799;27;20297;-44
2022/01/29 02:01:15;;;;;;;5.03;2.97;;;4.20;83.20;;;;;;5141103;27;20106;-44
2022/01/29 02:03:41;;;;;;;3.90;3.00;;;4.10;83.10;;;;;;5140923;27;20327;-44
2022/01/29 02:06:07;;;;;;;5.88;2.97;;;4.10;83.00;;;;;;5141127;27;20035;-41
2022/01/29 02:08:32;;;;;;;3.10;2.50;;;4.10;82.80;;;;;;5140984;27;20424;-31
2022/01/29 02:11:05;;;;;;;3.45;2.50;;;4.10;83.00;;;;;;5140956;27;20114;-34
2022/01/29 02:13:31;;;;;;;4.72;2.55;;;4.10;82.70;;;;;;5141311;27;20122;-33
2022/01/29 02:15:58;;;;;;;5.18;2.80;;;4.00;82.60;;;;;;5140539;27;20035;-33
2022/01/29 02:18:24;;;;;;;5.10;2.70;;;4.00;82.70;;;;;;5141236;27;20404;-32
2022/01/29 02:20:50;;;;;;;4.05;2.70;;;4.00;82.90;;;;;;5140890;27;20034;-41
2022/01/29 02:23:17;;;;;;;4.00;2.70;;;4.00;82.90;;;;;;5140967;27;20307;-41
2022/01/29 02:25:50;;;;;;;4.63;2.92;;;4.00;82.90;;;;;;5140411;27;20067;-41
2022/01/29 02:28:20;;;;;;;3.83;2.60;;;4.00;82.80;;;;;;5141002;27;20062;-32
2022/01/29 02:30:56;;;;;;;3.47;2.40;;;4.00;82.80;;;;;;5140845;27;20330;-41
2022/01/29 02:33:23;;;;;;;3.35;2.53;;;4.00;82.80;;;;;;5140963;27;20271;-41
2022/01/29 02:35:51;;;;;;;3.35;2.60;;;4.00;82.90;;;;;;5140428;27;20311;-32
2022/01/29 02:38:20;;;;;;;2.55;2.25;;;4.00;83.00;;;;;;5140671;27;20126;-31
2022/01/29 02:40:48;;;;;;;3.28;2.45;;;4.00;83.00;;;;;;5139960;27;20035;-31
2022/01/29 02:43:25;;;;;;;3.30;2.40;;;4.00;83.00;;;;;;5140299;27;20035;-32
2022/01/29 02:45:53;;;;;;;2.90;2.30;;;4.00;82.80;;;;;;5139798;27;20028;-31
2022/01/29 02:48:20;;;;;;;3.72;2.53;;;4.00;82.80;;;;;;5140376;27;20114;-31
2022/01/29 02:50:46;;;;;;;3.50;2.42;;;4.00;82.80;;;;;;5140107;27;20035;-32
2022/01/29 02:53:13;;;;;;;2.58;2.20;;;4.00;82.80;;;;;;5139961;27;20380;-33
2022/01/29 02:55:39;;;;;;;3.92;2.30;;;4.00;82.70;;;;;;5140159;27;20427;-35
2022/01/29 02:58:05;;;;;;;2.85;2.33;;;4.00;82.70;;;;;;5140464;27;20117;-34
2022/01/29 03:00:30;;;;;;;3.42;2.17;;;4.00;82.80;;;;;;5140041;27;20470;-35
2022/01/29 03:02:56;;;;;;;2.83;2.28;;;4.00;82.90;;;;;;5140233;27;20288;-34
2022/01/29 03:05:22;;;;;;;3.97;2.50;;;4.00;82.80;;;;;;5139335;27;20346;-36
2022/01/29 03:07:48;;;;;;;3.50;2.47;;;4.00;82.70;;;;;;5139766;27;20039;-44
2022/01/29 03:10:14;;;;;;;3.40;2.15;;;4.00;82.50;;;;;;5139690;27;20300;-44
2022/01/29 03:12:41;;;;;;;3.15;2.17;;;4.00;82.50;;;;;;5139909;27;20023;-44
2022/01/29 03:15:11;;;;;;;2.53;2.10;;;3.90;82.40;;;;;;5121921;27;20037;-33
2022/01/29 03:17:37;;;;;;;2.43;2.00;;;3.90;82.30;;;;;;5140016;27;20050;-34
2022/01/29 03:20:04;;;;;;;2.63;2.13;;;3.90;82.40;;;;;;5139751;27;20278;-35
2022/01/29 03:22:29;;;;;;;2.88;2.38;;;3.90;82.40;;;;;;5139560;27;20345;-44
2022/01/29 03:24:55;;;;;;;3.35;2.70;;;3.90;83.20;;;;;;5139666;27;20028;-36
2022/01/29 03:27:21;;;;;;;4.82;2.63;;;3.90;82.70;;;;;;5139597;27;20023;-35
2022/01/29 03:29:46;;;;;;;2.83;2.30;;;3.90;82.80;;;;;;5139529;27;20407;-36
2022/01/29 03:32:12;;;;;;;3.05;2.30;;;3.90;82.70;;;;;;5139751;27;20023;-34
2022/01/29 03:34:38;;;;;;;3.47;2.00;;;3.90;82.60;;;;;;5138950;27;20057;-34
2022/01/29 03:37:04;;;;;;;4.95;2.20;;;3.90;82.50;;;;;;5139615;27;20059;-44
2022/01/29 03:39:30;;;;;;;5.07;2.50;;;3.90;82.40;;;;;;5139224;27;20031;-42
2022/01/29 03:42:02;;;;;;;3.60;2.50;;;3.90;82.40;;;;;;5139458;27;20418;-34
2022/01/29 03:44:28;;;;;;;2.33;2.00;;;3.90;82.50;;;;;;5139060;27;20034;-44
2022/01/29 03:46:54;;;;;;;3.45;2.30;;;3.90;82.60;;;;;;5139530;27;20023;-41
2022/01/29 03:49:20;;;;;;;4.07;2.15;;;3.90;82.80;;;;;;5138924;27;20042;-35
2022/01/29 03:51:45;;;;;;;2.08;1.88;;;3.90;82.70;;;;;;5138892;27;20030;-43
2022/01/29 03:54:11;;;;;;;2.78;1.95;;;3.90;82.50;;;;;;5138884;27;20034;-44
2022/01/29 03:56:36;;;;;;;1.98;1.70;;;4.00;82.50;;;;;;5138425;27;20048;-45
2022/01/29 03:59:03;;;;;;;4.97;2.00;;;4.00;82.20;;;;;;5139320;27;20034;-38
2022/01/29 04:01:28;;;;;;;3.60;1.90;;;3.90;82.20;;;;;;5138411;27;20112;-44
2022/01/29 04:03:54;;;;;;;1.83;1.48;;;3.90;82.40;;;;;;5139212;27;20074;-36
2022/01/29 04:06:20;;;;;;;2.33;2.08;;;3.90;82.40;;;;;;5138679;27;20414;-34
2022/01/29 04:08:45;;;;;;;2.33;1.80;;;3.90;82.90;;;;;;5138453;27;20043;-44
2022/01/29 04:11:13;;;;;;;1.70;1.50;;;3.90;82.40;;;;;;5138585;27;20525;-38
2022/01/29 04:13:42;;;;;;;4.78;2.28;;;3.90;82.40;;;;;;5138883;27;20353;-34
2022/01/29 04:16:08;;;;;;;2.20;1.60;;;3.80;82.40;;;;;;5137680;27;20324;-44
2022/01/29 04:18:34;;;;;;;2.15;1.85;;;3.80;82.50;;;;;;5138799;27;20084;-34
2022/01/29 04:21:00;;;;;;;1.90;1.60;;;3.80;82.60;;;;;;5138129;27;20114;-44
2022/01/29 04:23:26;;;;;;;2.40;2.10;;;3.70;82.70;;;;;;5138705;27;20102;-34
2022/01/29 04:25:53;;;;;;;2.30;1.73;;;3.70;82.80;;;;;;5138333;27;20479;-44
2022/01/29 04:28:22;;;;;;;2.70;1.95;;;3.70;82.90;;;;;;5138657;27;20054;-34
2022/01/29 04:30:54;;;;;;;2.30;1.80;;;3.70;83.10;;;;;;5138257;27;20051;-44
2022/01/29 04:35:48;;;;;;;2.17;1.88;;;3.70;83.30;;;;;;5137731;27;20026;-44
2022/01/29 04:38:14;;;;;;;2.47;2.05;;;3.70;83.20;;;;;;5138376;27;20031;-34
2022/01/29 04:40:40;;;;;;;2.75;2.10;;;3.70;83.10;;;;;;5137697;27;20041;-44
2022/01/29 04:43:06;;;;;;;5.55;3.00;;;3.70;83.00;;;;;;5138224;27;20027;-44
2022/01/29 04:45:32;;;;;;;4.03;2.38;;;3.70;82.90;;;;;;5137553;27;20046;-35
2022/01/29 04:47:59;;;;;;;2.30;1.90;;;3.70;82.90;;;;;;5138179;27;20027;-34
2022/01/29 04:50:25;;;;;;;2.72;2.20;;;3.60;82.80;;;;;;5137945;27;20503;-43
2022/01/29 04:52:50;;;;;;;3.30;2.20;;;3.60;82.70;;;;;;5137926;27;20098;-37
2022/01/29 04:55:16;;;;;;;3.70;2.30;;;3.60;82.70;;;;;;5137385;27;20122;-44
2022/01/29 04:57:42;;;;;;;4.07;2.40;;;3.60;82.60;;;;;;5137433;27;20268;-44
2022/01/29 05:00:11;;;;;;;2.83;2.25;;;3.60;82.70;;;;;;5137617;27;20111;-35
2022/01/29 05:02:36;;;;;;;3.22;2.40;;;3.60;82.70;;;;;;5136926;27;20059;-44
2022/01/29 05:05:04;;;;;;;4.30;2.45;;;3.60;82.50;;;;;;5137532;27;20310;-44
2022/01/29 05:07:30;;;;;;;6.00;2.95;;;3.60;82.40;;;;;;5137507;27;20465;-44
2022/01/29 05:09:55;;;;;;;6.35;2.55;;;3.70;82.40;;;;;;5137378;27;20027;-34
2022/01/29 05:12:27;;;;;;;2.63;2.08;;;3.70;82.90;;;;;;5137559;27;20032;-44
2022/01/29 05:28:28;;;;;;;5.00;2.75;;;3.60;82.50;;;;;;5137738;27;20296;-34
2022/01/29 05:30:53;;;;;;;3.35;2.53;;;3.50;82.60;;;;;;5136827;27;20031;-44
2022/01/29 05:33:19;;;;;;;4.97;2.60;;;3.50;82.80;;;;;;5136947;27;20028;-34
2022/01/29 05:35:45;;;;;;;5.65;3.60;;;3.50;83.00;;;;;;5136775;27;20035;-44
2022/01/29 05:38:10;;;;;;;5.60;3.15;;;3.50;83.10;;;;;;5137284;27;20043;-44
2022/01/29 05:40:36;;;;;;;3.85;2.88;;;3.50;83.00;;;;;;5136855;27;20419;-44
2022/01/29 05:43:02;;;;;;;4.15;2.90;;;3.50;83.10;;;;;;5136990;27;20079;-43
2022/01/29 05:45:28;;;;;;;6.15;3.20;;;3.40;83.10;;;;;;5136787;27;20327;-34
2022/01/29 05:47:53;;;;;;;4.38;2.85;;;3.40;83.10;;;;;;5137050;27;20023;-44
2022/01/29 05:50:19;;;;;;;4.57;3.05;;;3.40;83.30;;;;;;5136956;27;20411;-34
2022/01/29 05:52:45;;;;;;;5.05;3.53;;;3.40;83.30;;;;;;5137188;28;20027;-44
2022/01/29 05:55:10;;;;;;;4.90;3.25;;;3.40;83.50;;;;;;5136481;28;20039;-44
2022/01/29 05:57:36;;;;;;;4.55;3.30;;;3.30;83.60;;;;;;5136860;28;20027;-44
2022/01/29 06:00:04;;;;;;;5.20;3.30;;;3.30;83.60;;;;;;5136628;28;20369;-44
2022/01/29 06:02:29;;;;;;;4.88;3.17;;;3.40;83.60;;;;;;5139890;27;20023;-44
2022/01/29 06:04:55;;;;;;;5.00;3.55;;;3.30;83.60;;;;;;5147885;27;20022;-35
2022/01/29 06:07:21;;;;;;;4.07;2.70;;;3.30;83.80;;;;;;5157220;27;20418;-35
2022/01/29 06:09:48;;;;;;;3.17;2.60;;;3.30;83.80;;;;;;5157015;27;20433;-43
2022/01/29 06:12:14;;;;;;;5.05;3.08;;;3.40;83.90;;;;;;5157249;27;20038;-34
2022/01/29 06:14:40;;;;;;;3.58;2.65;;;3.40;83.90;;;;;;5157004;27;20051;-34
2022/01/29 06:17:06;;;;;;;4.65;2.88;;;3.40;83.80;;;;;;5157187;27;20035;-34
2022/01/29 06:19:32;;;;;;;5.10;3.30;;;3.40;83.80;;;;;;5156797;27;20030;-34
2022/01/29 06:21:57;;;;;;;7.75;2.92;;;3.40;83.80;;;;;;5157142;27;20046;-37
2022/01/29 06:24:23;;;;;;;5.00;3.08;;;3.40;83.60;;;;;;5156901;27;20031;-43
2022/01/29 06:26:49;;;;;;;4.10;3.00;;;3.40;83.60;;;;;;5157119;27;20027;-44
2022/01/29 06:29:14;;;;;;;6.35;3.50;;;3.40;83.60;;;;;;5156940;27;20102;-43
2022/01/29 06:31:41;;;;;;;5.05;3.35;;;3.40;83.50;;;;;;5156846;27;20063;-34
2022/01/29 06:34:06;;;;;;;4.68;3.10;;;3.50;83.60;;;;;;5157046;27;20099;-34
2022/01/29 06:36:32;;;;;;;5.65;3.47;;;3.50;83.40;;;;;;5156721;27;20023;-43
2022/01/29 06:38:57;;;;;;;6.90;3.58;;;3.50;83.30;;;;;;5157993;27;20414;-33
2022/01/29 06:41:23;;;;;;;5.65;3.67;;;3.50;83.10;;;;;;5160756;27;20031;-35
2022/01/29 06:43:49;;;;;;;7.95;3.30;;;3.50;83.30;;;;;;5161126;27;20027;-41
2022/01/29 06:46:15;;;;;;;6.05;3.45;;;3.50;83.20;;;;;;5160899;27;20114;-44
2022/01/29 06:48:40;;;;;;;6.28;3.72;;;3.50;83.00;;;;;;5160816;27;20102;-34
2022/01/29 06:51:06;;;;;;;5.65;3.30;;;3.60;83.10;;;;;;5160713;27;20023;-44
2022/01/29 06:53:32;;;;;;;10.05;4.20;;;3.60;83.00;;;;;;5160991;27;20410;-44
2022/01/29 06:55:57;;;;;;;5.47;3.38;;;3.70;82.90;;;;;;5160563;27;20038;-36
2022/01/29 06:58:23;;;;;;;4.38;2.88;;;3.70;82.70;;;;;;5160933;27;20394;-44
2022/01/29 07:00:49;;;;;;;6.07;3.10;;;3.80;83.00;;;;;;5160259;27;20111;-36
2022/01/29 07:03:14;;;;;;;4.00;2.90;;;3.80;82.30;;;;;;5160673;27;20050;-43
2022/01/29 07:05:40;;;;;;;4.30;2.95;;;3.80;81.80;;;;;;5150103;27;20035;-43
2022/01/29 07:08:06;;;;;;;5.53;2.90;;;3.90;82.00;;;;;;5157531;27;20047;-43
2022/01/29 07:10:31;;;;;;;5.88;2.20;;;4.00;81.40;;;;;;5160203;27;20471;-44
2022/01/29 07:12:57;;;;;;;6.63;3.15;;;4.00;81.10;;;;;;5160445;27;20087;-44
2022/01/29 07:15:23;;;;;;;5.78;3.13;;;4.10;81.00;;;;;;5160208;27;20038;-43
2022/01/29 07:17:48;;;;;;;5.30;2.67;;;4.10;80.20;;;;;;5160406;27;20037;-34
2022/01/29 07:20:14;;;;;;;4.43;2.88;;;4.20;79.80;;;;;;5160092;27;20058;-33
2022/01/29 07:22:40;;;;;;;3.30;2.55;;;4.20;79.60;;;;;;5160194;27;20072;-43
2022/01/29 07:25:07;;;;;;;3.88;2.70;;;4.20;79.40;;;;;;5160408;27;20023;-42
2022/01/29 07:27:32;;;;;;;3.55;2.45;;;4.20;79.00;;;;;;5160348;27;20470;-34
2022/01/29 07:29:58;;;;;;;5.00;2.65;;;4.20;78.40;;;;;;5160049;27;20027;-43
2022/01/29 07:32:24;;;;;;;10.82;3.88;;;4.20;78.10;;;;;;5160121;27;20094;-43
2022/01/29 07:34:50;;;;;;;3.58;2.30;;;4.20;77.80;;;;;;5159768;27;20041;-34
2022/01/29 07:37:15;;;;;;;4.50;2.70;;;4.20;77.40;;;;;;5160247;27;20030;-35
2022/01/29 07:39:41;;;;;;;5.53;2.88;;;4.20;77.40;;;;;;5159785;27;20042;-34
2022/01/29 07:42:07;;;;;;;5.22;2.60;;;4.20;77.70;;;;;;5159856;27;20336;-43
2022/01/29 07:44:33;;;;;;;4.13;2.60;;;4.20;77.00;;;;;;5159294;27;20031;-43
2022/01/29 07:46:58;;;;;;;6.55;3.35;;;4.20;76.60;;;;;;5159859;27;20072;-34
2022/01/29 07:49:24;;;;;;;4.80;2.65;;;4.20;76.90;;;;;;5159179;27;20380;-34
2022/01/29 07:51:50;;;;;;;7.95;2.60;;;4.30;76.50;;;;;;5157957;27;20042;-34
2022/01/29 07:54:15;;;;;;;7.68;4.18;;;4.30;76.10;;;;;;5159638;27;20046;-37
2022/01/29 07:56:41;;;;;;;4.57;2.05;;;4.30;76.00;;;;;;5159219;27;20022;-45
2022/01/29 07:59:07;;;;;;;4.78;2.75;;;4.30;74.90;;;;;;5142438;27;20426;-45
2022/01/29 08:01:32;;;;;;;9.38;2.40;;;4.40;75.30;;;;;;5138378;27;20047;-34
2022/01/29 08:03:58;;;;;;;4.70;2.90;;;4.40;74.90;;;;;;5137348;27;20378;-35
2022/01/29 08:06:26;;;;;;;4.63;2.40;;;4.40;74.70;;;;;;5118814;27;20036;-45
2022/01/29 08:08:52;;;;;;;6.32;2.78;;;4.40;74.30;;;;;;5137432;27;20051;-34
2022/01/29 08:11:18;;;;;;;2.95;2.17;;;4.40;74.60;;;;;;5155487;27;20027;-44
2022/01/29 08:13:46;;;;;;;4.70;2.05;;;4.40;74.40;;;;;;5158973;27;20046;-43
2022/01/29 08:16:13;;;;;;;3.90;2.13;;;4.40;74.30;;;;;;5158849;27;20042;-35
2022/01/29 08:18:39;;;;;;;4.55;1.95;;;4.40;73.80;;;;;;5145396;27;20027;-34
2022/01/29 08:21:05;;;;;;;3.55;2.30;;;4.40;73.70;;;;;;5137895;27;20023;-36
2022/01/29 08:23:30;;;;;;;8.23;2.70;;;4.40;73.90;;;;;;5137985;27;20407;-44
2022/01/29 08:25:56;;;;;;;5.72;2.90;;;4.40;74.10;;;;;;5137302;27;20110;-36
2022/01/29 08:28:24;;;;;;;4.95;2.97;;;4.40;74.30;;;;;;5138189;27;20027;-44
2022/01/29 08:30:49;;;;;;;5.43;3.10;;;4.50;74.60;;;;;;5137771;27;20031;-44
2022/01/29 08:33:18;;;;;;;4.47;1.90;;;4.50;74.90;;;;;;5137917;27;20038;-43
2022/01/29 08:35:46;;;;;;;4.13;3.00;;;4.50;75.00;;;;;;5136701;27;20115;-43
2022/01/29 08:38:11;;;;;;;6.30;3.50;;;4.50;75.10;;;;;;5137413;27;20035;-43
2022/01/29 08:40:37;;;;;;;5.80;3.33;;;4.50;75.40;;;;;;5137744;27;20474;-43
2022/01/29 08:43:03;;;;;;;5.38;3.25;;;4.50;76.00;;;;;;5137945;27;20031;-34
2022/01/29 08:45:28;;;;;;;6.40;3.10;;;4.60;76.10;;;;;;5137381;27;20031;-34
2022/01/29 08:47:54;;;;;;;8.00;4.35;;;4.60;76.10;;;;;;5137323;27;20099;-44
2022/01/29 08:50:20;;;;;;;6.32;3.70;;;4.60;76.40;;;;;;5136926;27;20062;-43
2022/01/29 08:52:46;;;;;;;5.70;3.70;;;4.60;76.50;;;;;;5137502;27;20035;-33
2022/01/29 08:55:12;;;;;;;4.20;2.88;;;4.60;76.80;;;;;;5137472;27;20128;-44
2022/01/29 08:57:38;;;;;;;8.07;3.13;;;4.60;76.90;;;;;;5137345;27;20035;-43
2022/01/29 09:00:06;;;;;;;6.75;3.70;;;4.60;77.00;;;;;;5136367;27;20027;-33
2022/01/29 09:02:32;;;;;;;5.00;3.45;;;4.60;76.90;;;;;;5136838;27;20318;-34
2022/01/29 09:04:58;;;;;;;10.63;3.35;;;4.60;76.60;;;;;;5137179;27;20027;-43
2022/01/29 09:07:26;;;;;;;6.90;4.00;;;4.60;76.60;;;;;;5137090;27;20046;-43
2022/01/29 09:09:52;;;;;;;5.95;3.28;;;4.70;76.50;;;;;;5137323;27;20027;-33
2022/01/29 09:12:18;;;;;;;12.65;4.15;;;4.70;75.70;;;;;;5137529;27;20035;-33
2022/01/29 09:14:44;;;;;;;7.25;3.60;;;4.70;75.60;;;;;;5137062;27;20036;-35
2022/01/29 09:17:10;;;;;;;6.38;3.15;;;4.70;75.40;;;;;;5134008;27;20116;-45
2022/01/29 09:19:35;;;;;;;9.35;3.70;;;4.70;75.40;;;;;;5117074;27;20063;-43
2022/01/29 09:22:01;;;;;;;5.68;2.80;;;4.80;75.00;;;;;;5137138;27;20045;-43
2022/01/29 09:24:27;;;;;;;5.75;2.63;;;4.80;74.70;;;;;;5136594;27;20034;-45
2022/01/29 09:26:53;;;;;;;4.95;3.10;;;4.80;74.20;;;;;;5136765;27;20058;-34
2022/01/29 09:29:19;;;;;;;6.25;3.72;;;4.80;74.00;;;;;;5136628;27;20062;-33
2022/01/29 09:31:44;;;;;;;6.13;3.17;;;4.80;74.00;;;;;;5136356;27;20076;-43
2022/01/29 09:34:10;;;;;;;8.88;6.60;;;4.80;73.70;;;;;;5136270;27;20118;-35
2022/01/29 09:36:36;;;;;;;6.60;4.07;;;4.80;73.20;;;;;;5136563;27;20106;-44
2022/01/29 09:39:01;;;;;;;3.88;2.90;;;4.80;73.40;;;;;;5137043;27;20027;-34
2022/01/29 09:41:28;;;;;;;5.80;3.00;;;4.80;73.20;;;;;;5136730;27;20038;-33
2022/01/29 09:43:56;;;;;;;5.07;2.78;;;4.70;72.90;;;;;;5137035;27;20027;-44
2022/01/29 09:46:23;;;;;;;5.50;2.63;;;4.70;72.80;;;;;;5136647;27;20039;-43
2022/01/29 09:48:49;;;;;;;4.65;2.63;;;4.70;72.30;;;;;;5137065;27;20058;-44
2022/01/29 09:51:16;;;;;;;3.47;2.35;;;4.70;72.40;;;;;;5136543;27;20373;-34
2022/01/29 09:53:45;;;;;;;6.68;3.05;;;4.70;72.20;;;;;;5136736;28;20038;-34
2022/01/29 09:56:12;;;;;;;2.65;2.13;;;4.70;72.30;;;;;;5136557;28;20069;-34
2022/01/29 09:58:39;;;;;;;4.10;2.58;;;4.70;71.90;;;;;;5136643;28;20035;-34
2022/01/29 10:01:05;;;;;;;3.38;2.15;;;4.60;71.60;;;;;;5136266;28;20027;-44
2022/01/29 10:03:31;;;;;;;6.20;2.90;;;4.60;71.70;;;;;;5136369;28;20058;-44
2022/01/29 10:05:57;;;;;;;3.90;2.90;;;4.50;71.90;;;;;;5136399;28;20027;-43
2022/01/29 10:08:23;;;;;;;3.90;2.72;;;4.50;72.10;;;;;;5136248;28;20055;-38
2022/01/29 10:10:59;;;;;;;8.07;3.20;;;4.50;72.30;;;;;;5136505;28;20315;-43
2022/01/29 10:13:32;;;;;;;5.35;3.85;;;4.50;72.40;;;;;;5136487;27;20039;-43
2022/01/29 10:16:05;;;;;;;7.15;4.22;;;4.50;72.40;;;;;;5139962;27;20028;-33
2022/01/29 10:18:32;;;;;;;3.80;2.88;;;4.50;72.70;;;;;;5140638;27;20035;-34
2022/01/29 10:21:09;;;;;;;4.47;2.60;;;4.50;72.90;;;;;;5140504;27;20039;-34
2022/01/29 10:23:34;;;;;;;5.50;3.53;;;4.50;72.80;;;;;;5140523;27;20035;-33
2022/01/29 10:26:01;;;;;;;4.15;2.58;;;4.40;72.80;;;;;;5140421;27;20103;-33
2022/01/29 10:28:27;;;;;;;8.95;3.13;;;4.40;72.90;;;;;;5140589;27;20108;-43
2022/01/29 10:31:04;;;;;;;4.43;2.78;;;4.30;73.10;;;;;;5140171;27;20055;-44
2022/01/29 10:33:33;;;;;;;8.57;2.95;;;4.30;73.00;;;;;;5139752;27;20091;-44
2022/01/29 10:36:08;;;;;;;5.93;4.10;;;4.30;72.90;;;;;;5140057;27;20038;-33
2022/01/29 10:38:40;;;;;;;4.43;3.10;;;4.30;72.80;;;;;;5140661;27;20035;-44
2022/01/29 10:41:29;;;;;;;5.97;3.45;;;4.30;73.00;;;;;;5140287;27;20323;-44
2022/01/29 10:44:24;;;;;;;7.93;3.50;;;4.30;72.60;;;;;;5140455;27;20398;-44
2022/01/29 10:46:50;;;;;;;8.70;3.42;;;4.30;73.00;;;;;;5139388;27;20130;-43
2022/01/29 10:49:17;;;;;;;5.45;3.00;;;4.40;73.70;;;;;;5139734;27;20031;-33
2022/01/29 10:52:13;;;;;;;6.55;4.03;;;4.40;73.00;;;;;;5139868;27;20377;-44
2022/01/29 10:54:41;;;;;;;9.55;3.60;;;4.40;72.70;;;;;;5138980;27;20097;-33
2022/01/29 10:57:13;;;;;;;6.13;3.20;;;4.40;72.70;;;;;;5139644;27;20388;-44
2022/01/29 10:59:50;;;;;;;14.80;7.13;;;4.50;72.60;;;;;;5139678;27;20028;-33
2022/01/29 11:02:18;;;;;;;12.35;4.85;;;4.50;72.20;;;;;;5139182;27;20114;-34
2022/01/29 11:04:47;;;;;;;6.72;2.80;;;4.50;72.10;;;;;;5139477;27;20031;-33
2022/01/29 11:07:17;;;;;;;5.85;2.60;;;4.50;71.50;;;;;;5139620;27;20027;-33
2022/01/29 11:09:45;;;;;;;9.17;3.90;;;4.50;71.50;;;;;;5139418;27;20323;-34
2022/01/29 11:12:16;;;;;;;6.68;3.60;;;4.50;70.70;;;;;;5139874;27;20034;-43
2022/01/29 11:14:42;;;;;;;6.32;3.67;;;4.40;70.80;;;;;;5139578;27;20114;-44
2022/01/29 11:17:10;;;;;;;5.88;3.05;;;4.40;70.90;;;;;;5139555;27;20292;-33
2022/01/29 11:19:39;;;;;;;7.13;3.75;;;4.40;70.30;;;;;;5139427;27;20141;-43
2022/01/29 11:22:07;;;;;;;5.68;2.80;;;4.40;70.20;;;;;;5139565;27;20423;-42
2022/01/29 11:24:34;;;;;;;3.95;2.65;;;4.30;70.20;;;;;;5138711;27;20026;-34
2022/01/29 11:26:59;;;;;;;7.90;3.40;;;4.30;70.20;;;;;;5136048;27;20172;-33
2022/01/29 11:29:26;;;;;;;4.85;3.03;;;4.30;70.20;;;;;;5138926;27;20106;-34
2022/01/29 11:32:24;;;;;;;6.68;3.25;;;4.30;70.10;;;;;;5139027;27;20026;-38
2022/01/29 11:35:03;;;;;;;6.15;3.80;;;4.30;70.40;;;;;;5138885;27;20059;-38
2022/01/29 11:37:42;;;;;;;7.38;3.30;;;4.30;70.10;;;;;;5138980;27;20023;-34
2022/01/29 11:40:16;;;;;;;6.00;3.13;;;4.20;70.00;;;;;;5138678;27;20110;-34
2022/01/29 11:42:56;;;;;;;5.00;2.72;;;4.20;70.10;;;;;;5138953;27;20407;-39
2022/01/29 11:46:04;;;;;;;3.83;2.90;;;4.20;70.00;;;;;;5138958;27;20100;-36
2022/01/29 11:48:36;;;;;;;6.95;3.58;;;4.20;70.10;;;;;;5138807;27;20027;-43
2022/01/29 11:51:05;;;;;;;5.50;3.40;;;4.20;69.90;;;;;;5138581;27;20037;-33
2022/01/29 11:53:45;;;;;;;5.85;3.15;;;4.20;70.00;;;;;;5138985;27;20095;-36
2022/01/29 11:56:32;;;;;;;5.97;3.58;;;4.20;69.80;;;;;;5138483;27;20035;-45
2022/01/29 11:59:19;;;;;;;6.75;3.50;;;4.20;69.80;;;;;;5138399;27;20241;-45
2022/01/29 12:01:59;;;;;;;6.25;2.97;;;4.20;69.60;;;;;;5137996;27;20031;-44
2022/01/29 12:05:00;;;;;;;4.28;2.72;;;4.20;69.80;;;;;;5138415;27;20027;-33
2022/01/29 12:07:31;;;;;;;4.60;2.67;;;4.20;69.60;;;;;;5138118;27;20031;-35
2022/01/29 12:10:14;;;;;;;5.03;2.60;;;4.20;69.20;;;;;;5138186;27;20031;-44
2022/01/29 12:12:41;;;;;;;8.07;4.00;;;4.10;69.30;;;;;;5138368;27;20091;-43
2022/01/29 12:15:10;;;;;;;5.80;2.83;;;4.10;69.50;;;;;;5137891;27;20098;-34
2022/01/29 12:17:43;;;;;;;8.07;3.47;;;4.10;70.00;;;;;;5138007;27;20072;-43
2022/01/29 12:20:12;;;;;;;10.40;3.97;;;4.10;69.60;;;;;;5138237;27;20031;-39
2022/01/29 12:22:39;;;;;;;13.43;3.90;;;4.10;69.80;;;;;;5137757;27;20030;-43
2022/01/29 12:25:09;;;;;;;9.13;3.25;;;4.10;69.90;;;;;;5137718;27;20020;-44
2022/01/29 12:27:51;;;;;;;7.47;3.03;;;4.10;69.70;;;;;;5137404;27;20434;-33
2022/01/29 12:30:19;;;;;;;8.60;3.58;;;4.10;69.70;;;;;;5137889;27;20031;-43
2022/01/29 12:33:04;;;;;;;9.07;3.97;;;4.10;69.50;;;;;;5137722;27;20035;-33
2022/01/29 12:35:54;;;;;;;6.93;4.15;;;4.00;69.30;;;;;;5137278;27;20031;-43
2022/01/29 12:38:26;;;;;;;12.20;6.10;;;4.00;69.30;;;;;;5123088;27;20047;-34
2022/01/29 12:40:56;;;;;;;7.47;3.78;;;4.00;69.40;;;;;;5137558;27;20330;-34
2022/01/29 12:44:04;;;;;;;7.95;4.32;;;4.00;69.50;;;;;;5138168;27;20114;-43
2022/01/29 12:46:30;;;;;;;6.72;3.50;;;4.00;69.70;;;;;;5137498;27;20043;-43
2022/01/29 12:49:11;;;;;;;7.95;4.15;;;4.00;69.50;;;;;;5138082;27;20035;-43
2022/01/29 12:51:53;;;;;;;6.72;3.22;;;4.00;69.50;;;;;;5137776;27;20085;-34
2022/01/29 12:54:19;;;;;;;10.50;4.30;;;3.90;69.50;;;;;;5137718;27;20386;-33
2022/01/29 12:56:45;;;;;;;4.25;2.60;;;3.90;69.60;;;;;;5137167;27;20430;-34
2022/01/29 12:59:12;;;;;;;7.80;5.05;;;3.90;69.60;;;;;;5137480;27;20024;-35
2022/01/29 13:01:39;;;;;;;5.50;3.58;;;3.90;69.50;;;;;;5136266;27;20031;-44
2022/01/29 13:04:13;;;;;;;7.40;3.50;;;3.90;69.40;;;;;;5137341;27;20027;-34
2022/01/29 13:06:40;;;;;;;4.70;2.90;;;3.90;69.60;;;;;;5137050;27;20102;-43
2022/01/29 13:09:23;;;;;;;6.53;3.22;;;3.90;69.50;;;;;;5137284;27;20048;-45
2022/01/29 13:11:59;;;;;;;8.27;3.20;;;3.90;69.40;;;;;;5137537;27;20363;-43
2022/01/29 13:14:25;;;;;;;7.55;3.75;;;3.90;69.70;;;;;;5137114;27;20031;-38
2022/01/29 13:16:57;;;;;;;6.63;3.80;;;3.90;70.00;;;;;;5136951;27;20039;-43
2022/01/29 13:19:27;;;;;;;5.55;3.28;;;3.90;70.00;;;;;;5137388;27;20106;-43